createdAt,value
2019-04-04T00:00:58.036Z,31.27
2019-04-04T00:03:26.959Z,30.70
2019-04-04T00:05:56.641Z,31.23
2019-04-04T00:08:26.112Z,34.67
2019-04-04T00:10:54.986Z,36.70
2019-04-04T00:13:23.979Z,32.90
2019-04-04T00:15:52.914Z,34.13
2019-04-04T00:18:21.891Z,34.77
2019-04-04T00:20:50.733Z,34.93
2019-04-04T00:23:19.653Z,35.27
2019-04-04T00:25:48.594Z,34.30
2019-04-04T00:28:17.618Z,38.97
2019-04-04T00:30:48.267Z,33.23
2019-04-04T00:33:17.062Z,35.73
2019-04-04T00:35:45.996Z,32.67
2019-04-04T00:38:15.068Z,36.10
2019-04-04T00:40:44.033Z,37.30
2019-04-04T00:43:13.003Z,36.03
2019-04-04T00:45:41.934Z,34.83
2019-04-04T00:48:10.831Z,31.50
2019-04-04T00:50:39.748Z,27.37
2019-04-04T00:53:09.914Z,30.50
2019-04-04T00:55:39.239Z,27.90
2019-04-04T00:58:08.115Z,27.83
2019-04-04T01:00:37.139Z,29.90
2019-04-04T01:03:06.038Z,29.53
2019-04-04T01:05:34.889Z,29.77
2019-04-04T01:08:04.941Z,27.40
2019-04-04T01:10:34.552Z,26.57
2019-04-04T01:13:03.576Z,26.10
2019-04-04T01:15:32.520Z,25.17
2019-04-04T01:18:01.715Z,26.73
2019-04-04T01:20:30.815Z,22.70
2019-04-04T01:22:59.831Z,26.00
2019-04-04T01:25:31.899Z,23.80
2019-04-04T01:27:59.411Z,25.83
2019-04-04T01:30:28.375Z,26.33
2019-04-04T01:32:57.311Z,26.50
2019-04-04T01:35:26.284Z,27.30
2019-04-04T01:37:56.070Z,25.03
2019-04-04T01:40:26.093Z,25.13
2019-04-04T01:42:55.125Z,23.90
2019-04-04T01:45:24.077Z,23.83
2019-04-04T01:47:52.980Z,20.40
2019-04-04T01:50:22.805Z,22.60
2019-04-04T01:52:52.344Z,24.10
2019-04-04T01:55:21.300Z,25.17
2019-04-04T01:57:50.418Z,24.30
2019-04-04T02:00:19.653Z,25.07
2019-04-04T02:02:51.569Z,21.43
2019-04-04T02:05:19.239Z,20.27
2019-04-04T02:07:48.226Z,23.97
2019-04-04T02:10:17.171Z,19.30
2019-04-04T02:12:46.126Z,20.43
2019-04-04T02:15:15.222Z,19.13
2019-04-04T02:17:44.257Z,25.90
2019-04-04T02:20:13.431Z,24.53
2019-04-04T02:22:42.473Z,27.23
2019-04-04T02:25:11.544Z,20.53
2019-04-04T02:27:40.426Z,21.20
2019-04-04T02:30:14.862Z,20.80
2019-04-04T02:32:40.403Z,17.90
2019-04-04T02:35:10.685Z,17.20
2019-04-04T02:37:40.538Z,20.33
2019-04-04T02:40:10.056Z,22.57
2019-04-04T02:42:39.424Z,16.47
2019-04-04T02:45:08.566Z,14.27
2019-04-04T02:47:37.655Z,18.93
2019-04-04T02:50:07.347Z,17.77
2019-04-04T02:52:36.474Z,15.27
2019-04-04T02:55:05.885Z,15.13
2019-04-04T02:57:34.894Z,20.03
2019-04-04T03:00:04.441Z,21.93
2019-04-04T03:02:36.059Z,22.20
2019-04-04T03:05:04.845Z,21.03
2019-04-04T03:07:33.935Z,18.63
2019-04-04T03:10:02.912Z,19.97
2019-04-04T03:12:31.926Z,22.77
2019-04-04T03:15:00.948Z,21.03
2019-04-04T03:17:32.589Z,22.27
2019-04-04T03:20:00.413Z,18.77
2019-04-04T03:22:29.260Z,22.93
2019-04-04T03:24:58.136Z,18.73
2019-04-04T03:27:27.389Z,18.23
2019-04-04T03:29:56.364Z,17.50
2019-04-04T03:32:25.237Z,16.90
2019-04-04T03:34:54.348Z,18.20
2019-04-04T03:37:23.394Z,19.63
2019-04-04T03:39:53.427Z,19.90
2019-04-04T03:42:22.537Z,17.00
2019-04-04T03:44:53.317Z,18.30
2019-04-04T03:47:22.054Z,19.50
2019-04-04T03:49:51.031Z,19.80
2019-04-04T03:52:20.014Z,18.87
2019-04-04T03:54:49.034Z,19.20
2019-04-04T03:57:18.101Z,18.87
2019-04-04T03:59:47.099Z,17.13
2019-04-04T04:02:18.563Z,19.70
2019-04-04T04:04:46.643Z,19.23
2019-04-04T04:07:15.783Z,23.13
2019-04-04T04:09:44.867Z,20.50
2019-04-04T04:12:13.796Z,20.93
2019-04-04T04:14:42.841Z,18.00
2019-04-04T04:17:12.655Z,20.80
2019-04-04T04:19:41.718Z,19.70
2019-04-04T04:22:12.885Z,23.17
2019-04-04T04:24:41.241Z,25.33
2019-04-04T04:27:14.408Z,22.67
2019-04-04T04:29:40.698Z,19.50
2019-04-04T04:32:09.580Z,23.53
2019-04-04T04:34:38.548Z,24.33
2019-04-04T04:37:07.432Z,23.30
2019-04-04T04:39:41.024Z,22.90
2019-04-04T04:42:07.048Z,22.30
2019-04-04T04:44:38.725Z,25.10
2019-04-04T04:47:06.982Z,24.70
2019-04-04T04:49:36.445Z,23.60
2019-04-04T04:52:05.618Z,21.63
2019-04-04T04:54:34.651Z,25.83
2019-04-04T04:57:04.754Z,25.80
2019-04-04T04:59:34.169Z,46.13
2019-04-04T05:02:03.115Z,26.23
2019-04-04T05:04:32.231Z,24.13
2019-04-04T05:07:01.228Z,84.37
2019-04-04T05:09:30.302Z,25.93
2019-04-04T05:11:59.266Z,29.87
2019-04-04T05:14:29.808Z,30.77
2019-04-04T05:16:58.932Z,30.70
2019-04-04T05:19:28.175Z,32.17
2019-04-04T05:21:57.200Z,30.50
2019-04-04T05:24:26.291Z,30.53
2019-04-04T05:26:55.274Z,31.87
2019-04-04T05:29:24.251Z,29.30
2019-04-04T05:31:53.166Z,28.87
2019-04-04T05:34:22.171Z,30.70
2019-04-04T05:36:51.180Z,29.37
2019-04-04T05:39:20.144Z,29.60
2019-04-04T05:41:49.132Z,32.27
2019-04-04T05:44:18.017Z,30.83
2019-04-04T05:46:47.005Z,29.97
2019-04-04T05:49:15.993Z,28.53
2019-04-04T05:51:46.352Z,27.67
2019-04-04T05:54:15.645Z,29.77
2019-04-04T05:56:46.725Z,28.70
2019-04-04T05:59:15.212Z,28.27
2019-04-04T06:01:44.131Z,27.87
2019-04-04T06:04:13.055Z,27.07
2019-04-04T06:06:42.033Z,33.23
2019-04-04T06:09:13.840Z,35.07
2019-04-04T06:11:41.675Z,31.10
2019-04-04T06:14:10.536Z,31.33
2019-04-04T06:16:39.426Z,32.83
2019-04-04T06:19:08.380Z,34.70
2019-04-04T06:21:37.340Z,34.97
2019-04-04T06:24:06.292Z,34.10
2019-04-04T06:26:36.048Z,31.70
2019-04-04T06:29:05.929Z,40.53
2019-04-04T06:31:34.937Z,33.93
2019-04-04T06:34:05.859Z,37.50
2019-04-04T06:36:34.546Z,35.30
2019-04-04T06:39:05.472Z,33.30
2019-04-04T06:41:34.350Z,35.47
2019-04-04T06:44:03.267Z,36.67
2019-04-04T06:46:32.176Z,38.73
2019-04-04T06:49:03.980Z,39.60
2019-04-04T06:51:31.616Z,37.07
2019-04-04T06:54:00.648Z,35.47
2019-04-04T06:56:31.861Z,36.60
2019-04-04T06:59:00.198Z,33.37
2019-04-04T07:01:29.039Z,31.13
2019-04-04T07:03:59.505Z,32.33
2019-04-04T07:06:28.559Z,34.03
2019-04-04T07:08:57.487Z,31.67
2019-04-04T07:11:26.322Z,35.67
2019-04-04T07:13:58.735Z,33.20
2019-04-04T07:16:25.804Z,34.80
2019-04-04T07:18:54.644Z,32.43
2019-04-04T07:21:23.600Z,34.20
2019-04-04T07:23:52.580Z,32.70
2019-04-04T07:26:21.461Z,31.90
2019-04-04T07:28:53.733Z,32.13
2019-04-04T07:31:25.696Z,31.33
2019-04-04T07:33:57.609Z,31.20
2019-04-04T07:36:26.752Z,34.40
2019-04-04T07:38:55.630Z,33.23
2019-04-04T07:41:24.479Z,30.97
2019-04-04T07:43:53.436Z,32.00
2019-04-04T07:46:22.310Z,33.23
2019-04-04T07:48:51.568Z,32.90
2019-04-04T07:51:21.309Z,32.00
2019-04-04T07:53:50.228Z,29.97
2019-04-04T07:56:19.095Z,29.57
2019-04-04T07:58:48.051Z,26.40
2019-04-04T08:01:16.988Z,28.57
2019-04-04T08:03:45.926Z,25.20
2019-04-04T08:06:14.846Z,34.00
2019-04-04T08:08:43.720Z,30.43
2019-04-04T08:11:13.386Z,28.10
2019-04-04T08:13:42.522Z,30.80
2019-04-04T08:16:11.543Z,26.67
2019-04-04T08:18:40.464Z,28.23
2019-04-04T08:21:09.487Z,31.23
2019-04-04T08:23:38.472Z,30.17
2019-04-04T08:26:09.993Z,27.63
2019-04-04T08:28:38.072Z,27.97
2019-04-04T08:31:09.682Z,27.27
2019-04-04T08:33:37.679Z,26.07
2019-04-04T08:36:06.828Z,25.23
2019-04-04T08:38:35.933Z,27.63
2019-04-04T08:41:04.963Z,25.73
2019-04-04T08:43:33.980Z,26.50
2019-04-04T08:46:02.991Z,27.80
2019-04-04T08:48:32.006Z,25.37
2019-04-04T08:51:00.852Z,26.37
2019-04-04T08:53:39.157Z,27.73
2019-04-04T08:56:00.363Z,28.60
2019-04-04T08:58:29.315Z,30.17
2019-04-04T09:01:18.044Z,30.07
2019-04-04T09:03:46.948Z,26.60
2019-04-04T09:06:16.031Z,25.37
2019-04-04T09:08:44.884Z,28.63
2019-04-04T09:11:13.752Z,23.70
2019-04-04T09:13:42.749Z,26.30
2019-04-04T09:16:11.828Z,25.40
2019-04-04T09:18:40.660Z,23.87
2019-04-04T09:21:09.760Z,24.00
2019-04-04T09:23:38.628Z,26.53
2019-04-04T09:26:07.553Z,25.17
2019-04-04T09:28:36.499Z,23.40
2019-04-04T09:31:05.562Z,30.60
2019-04-04T09:33:34.391Z,24.53
2019-04-04T09:36:03.332Z,22.63
2019-04-04T09:38:32.194Z,22.17
2019-04-04T09:41:01.227Z,21.80
2019-04-04T09:43:30.083Z,18.30
2019-04-04T09:45:59.167Z,20.63
2019-04-04T09:48:28.148Z,20.93
2019-04-04T09:50:57.052Z,20.37
2019-04-04T09:53:25.997Z,19.50
2019-04-04T09:55:55.060Z,18.97
2019-04-04T09:58:23.980Z,20.87
2019-04-04T10:00:53.059Z,19.57
2019-04-04T10:03:21.987Z,19.23
2019-04-04T10:05:51.313Z,19.83
2019-04-04T10:08:20.351Z,19.13
2019-04-04T10:10:49.388Z,21.97
2019-04-04T10:13:18.258Z,18.90
2019-04-04T10:15:47.122Z,20.80
2019-04-04T10:18:16.058Z,21.73
2019-04-04T10:20:44.948Z,22.90
2019-04-04T10:23:13.792Z,22.93
2019-04-04T10:25:42.679Z,23.10
2019-04-04T10:28:11.676Z,21.57
2019-04-04T10:30:40.609Z,21.00
2019-04-04T10:33:09.693Z,23.37
2019-04-04T10:35:38.526Z,22.33
2019-04-04T10:38:07.575Z,23.93
2019-04-04T10:40:36.615Z,25.70
2019-04-04T10:43:05.607Z,25.93
2019-04-04T10:45:34.572Z,23.20
2019-04-04T10:48:03.743Z,24.20
2019-04-04T10:50:32.704Z,25.67
2019-04-04T10:53:01.632Z,23.10
2019-04-04T10:55:30.551Z,25.57
2019-04-04T10:57:59.598Z,23.73
2019-04-04T11:00:28.534Z,26.00
2019-04-04T11:02:57.524Z,27.10
2019-04-04T11:05:26.420Z,25.03
2019-04-04T11:07:56.820Z,25.40
2019-04-04T11:10:26.048Z,24.03
2019-04-04T11:12:54.957Z,24.23
2019-04-04T11:15:23.880Z,24.50
2019-04-04T11:17:52.943Z,24.97
2019-04-04T11:20:21.880Z,26.00
2019-04-04T11:22:50.928Z,25.70
2019-04-04T11:25:19.933Z,25.50
2019-04-04T11:27:48.917Z,29.37
2019-04-04T11:30:18.126Z,25.67
2019-04-04T11:32:48.983Z,27.57
2019-04-04T11:35:17.955Z,27.67
2019-04-04T11:37:46.923Z,28.23
2019-04-04T11:40:16.069Z,28.77
2019-04-04T11:42:45.099Z,30.67
2019-04-04T11:45:14.376Z,29.07
2019-04-04T11:47:43.531Z,30.17
2019-04-04T11:50:12.915Z,29.07
2019-04-04T11:52:41.964Z,29.60
2019-04-04T11:55:11.082Z,31.20
2019-04-04T11:57:40.142Z,31.73
2019-04-04T12:00:11.391Z,31.00
2019-04-04T12:02:40.306Z,30.97
2019-04-04T12:05:09.471Z,32.90
2019-04-04T12:07:38.757Z,33.17
2019-04-04T12:10:08.371Z,32.70
2019-04-04T12:12:37.481Z,32.90
2019-04-04T12:15:08.655Z,35.10
2019-04-04T12:17:46.467Z,32.40
2019-04-04T12:20:17.708Z,33.73
2019-04-04T12:22:48.340Z,32.80
2019-04-04T12:25:19.217Z,32.33
2019-04-04T12:27:50.118Z,32.80
2019-04-04T12:30:21.017Z,35.73
2019-04-04T12:32:51.801Z,33.47
2019-04-04T12:35:20.787Z,34.53
2019-04-04T12:37:49.648Z,34.47
2019-04-04T12:40:20.891Z,33.33
2019-04-04T12:42:49.661Z,33.90
2019-04-04T12:45:18.772Z,36.83
2019-04-04T12:47:47.766Z,32.93
2019-04-04T12:50:16.752Z,32.37
2019-04-04T12:52:45.714Z,38.57
2019-04-04T12:55:14.688Z,36.10
2019-04-04T12:57:43.733Z,33.77
2019-04-04T13:00:13.540Z,35.73
2019-04-04T13:02:43.018Z,33.10
2019-04-04T13:05:12.190Z,33.47
2019-04-04T13:07:41.254Z,35.47
2019-04-04T13:10:12.067Z,33.07
2019-04-04T13:12:41.273Z,35.67
2019-04-04T13:15:12.108Z,38.43
2019-04-04T13:17:41.121Z,35.43
2019-04-04T13:20:10.827Z,35.03
2019-04-04T13:22:39.910Z,34.43
2019-04-04T13:25:09.535Z,35.30
2019-04-04T13:27:38.523Z,34.00
2019-04-04T13:30:09.711Z,34.03
2019-04-04T13:32:38.746Z,34.97
2019-04-04T13:35:08.009Z,35.63
2019-04-04T13:37:37.008Z,34.20
2019-04-04T13:40:06.318Z,34.00
2019-04-04T13:42:35.324Z,35.77
2019-04-04T13:45:04.687Z,37.63
2019-04-04T13:47:33.822Z,37.20
2019-04-04T13:50:02.979Z,34.83
2019-04-04T13:52:31.942Z,36.70
2019-04-04T13:55:00.972Z,35.17
2019-04-04T13:57:30.105Z,35.73
2019-04-04T13:59:59.013Z,35.13
2019-04-04T14:02:28.072Z,33.20
2019-04-04T14:05:08.917Z,35.50
2019-04-04T14:07:27.760Z,33.43
2019-04-04T14:09:57.111Z,34.17
2019-04-04T14:12:26.068Z,33.40
2019-04-04T14:14:55.064Z,34.33
2019-04-04T14:17:24.148Z,36.67
2019-04-04T14:19:53.110Z,33.67
2019-04-04T14:22:21.996Z,32.17
2019-04-04T14:24:50.923Z,32.77
2019-04-04T14:27:19.916Z,34.80
2019-04-04T14:29:48.836Z,36.93
2019-04-04T14:32:19.765Z,39.83
2019-04-04T14:34:48.479Z,37.57
2019-04-04T14:37:17.362Z,36.77
2019-04-04T14:39:46.338Z,35.77
2019-04-04T14:42:15.255Z,35.67
2019-04-04T14:44:44.342Z,38.17
2019-04-04T14:47:13.936Z,36.80
2019-04-04T14:49:45.838Z,36.63
2019-04-04T14:52:14.928Z,37.87
2019-04-04T14:54:43.885Z,38.03
2019-04-04T14:57:12.860Z,39.10
2019-04-04T14:59:41.909Z,37.87
2019-04-04T15:02:10.945Z,36.77
2019-04-04T15:04:39.891Z,38.77
2019-04-04T15:07:08.845Z,39.73
2019-04-04T15:09:37.903Z,38.47
2019-04-04T15:12:07.110Z,39.77
2019-04-04T15:14:36.056Z,44.77
2019-04-04T15:17:05.195Z,44.10
2019-04-04T15:19:34.120Z,47.13
2019-04-04T15:22:03.238Z,48.43
2019-04-04T15:24:32.254Z,49.07
2019-04-04T15:27:01.298Z,47.67
2019-04-04T15:29:30.341Z,48.07
2019-04-04T15:31:59.323Z,52.70
2019-04-04T15:34:28.231Z,50.77
2019-04-04T15:36:57.282Z,53.33
2019-04-04T15:39:26.528Z,51.77
2019-04-04T15:41:55.461Z,55.60
2019-04-04T15:44:24.733Z,52.97
2019-04-04T15:46:53.839Z,51.00
2019-04-04T15:49:22.791Z,50.30
2019-04-04T15:51:51.715Z,55.40
2019-04-04T15:54:20.648Z,57.00
2019-04-04T15:56:49.645Z,58.03
2019-04-04T15:59:18.652Z,50.07
2019-04-04T16:01:47.595Z,53.20
2019-04-04T16:04:16.830Z,54.90
2019-04-04T16:06:45.919Z,55.23
2019-04-04T16:09:14.916Z,54.80
2019-04-04T16:11:49.714Z,54.70
2019-04-04T16:14:19.207Z,54.57
2019-04-04T16:16:48.195Z,56.27
2019-04-04T16:19:17.221Z,54.93
2019-04-04T16:21:46.212Z,53.47
2019-04-04T16:24:15.387Z,53.93
2019-04-04T16:26:44.443Z,53.10
2019-04-04T16:29:13.482Z,55.33
2019-04-04T16:31:42.524Z,54.07
2019-04-04T16:34:11.636Z,52.50
2019-04-04T16:36:40.838Z,53.43
2019-04-04T16:39:09.884Z,53.50
2019-04-04T16:41:38.838Z,49.63
2019-04-04T16:44:07.980Z,52.77
2019-04-04T16:46:36.995Z,52.13
2019-04-04T16:49:05.964Z,50.53
2019-04-04T16:51:34.944Z,50.77
2019-04-04T16:54:03.913Z,52.27
2019-04-04T16:56:32.860Z,49.73
2019-04-04T16:59:01.881Z,51.73
2019-04-04T17:01:30.973Z,51.53
2019-04-04T17:04:01.953Z,50.50
2019-04-04T17:06:30.527Z,50.60
2019-04-04T17:08:59.452Z,48.13
2019-04-04T17:11:28.398Z,51.57
2019-04-04T17:13:57.312Z,51.70
2019-04-04T17:16:26.195Z,57.60
2019-04-04T17:18:55.160Z,50.67
2019-04-04T17:21:24.070Z,52.40
2019-04-04T17:23:53.050Z,55.53
2019-04-04T17:26:22.033Z,57.53
2019-04-04T17:28:51.364Z,53.23
2019-04-04T17:31:20.387Z,52.93
2019-04-04T17:33:50.379Z,57.17
2019-04-04T17:36:21.261Z,58.70
2019-04-04T17:38:50.023Z,59.13
2019-04-04T17:41:18.987Z,56.83
2019-04-04T17:43:49.444Z,57.43
2019-04-04T17:46:18.519Z,54.80
2019-04-04T17:48:47.372Z,58.60
2019-04-04T17:51:16.759Z,54.63
2019-04-04T17:53:45.749Z,55.83
2019-04-04T17:56:14.744Z,55.87
2019-04-04T17:58:43.743Z,55.90
2019-04-04T18:01:13.433Z,57.83
2019-04-04T18:03:42.439Z,53.30
2019-04-04T18:06:11.996Z,59.13
2019-04-04T18:08:41.028Z,56.37
2019-04-04T18:11:10.431Z,60.10
2019-04-04T18:13:39.475Z,57.87
2019-04-04T18:16:09.103Z,54.47
2019-04-04T18:18:38.119Z,54.50
2019-04-04T18:21:07.344Z,57.00
2019-04-04T18:23:36.444Z,53.00
2019-04-04T18:26:05.627Z,55.77
2019-04-04T18:28:34.631Z,58.53
2019-04-04T18:31:03.590Z,54.53
2019-04-04T18:33:32.660Z,52.13
2019-04-04T18:36:01.701Z,54.07
2019-04-04T18:38:30.921Z,53.07
2019-04-04T18:40:59.892Z,52.80
2019-04-04T18:43:28.932Z,57.40
2019-04-04T18:45:58.048Z,59.13
2019-04-04T18:48:27.143Z,58.37
2019-04-04T18:50:56.160Z,55.80
2019-04-04T18:53:25.364Z,59.43
2019-04-04T18:55:54.292Z,55.43
2019-04-04T18:58:23.356Z,56.70
2019-04-04T19:00:52.470Z,55.53
2019-04-04T19:03:21.544Z,59.57
2019-04-04T19:05:50.483Z,59.60
2019-04-04T19:08:19.714Z,56.93
2019-04-04T19:10:49.535Z,55.47
2019-04-04T19:13:18.641Z,48.47
2019-04-04T19:15:48.086Z,51.17
2019-04-04T19:18:18.772Z,50.30
2019-04-04T19:20:48.269Z,52.60
2019-04-04T19:23:18.533Z,52.90
2019-04-04T19:25:47.885Z,55.43
2019-04-04T19:28:18.423Z,53.83
2019-04-04T19:30:47.419Z,51.63
2019-04-04T19:33:17.224Z,58.70
2019-04-04T19:35:47.424Z,55.23
2019-04-04T19:38:16.408Z,56.67
2019-04-04T19:40:45.488Z,58.10
2019-04-04T19:43:18.406Z,52.07
2019-04-04T19:45:45.383Z,53.73
2019-04-04T19:48:14.336Z,52.80
2019-04-04T19:50:44.026Z,53.63
2019-04-04T19:53:13.259Z,54.00
2019-04-04T19:55:42.542Z,51.10
2019-04-04T19:58:11.607Z,53.97
2019-04-04T20:00:40.479Z,54.70
2019-04-04T20:03:09.439Z,47.83
2019-04-04T20:05:38.469Z,52.07
2019-04-04T20:08:07.599Z,51.03
2019-04-04T20:10:36.665Z,55.57
2019-04-04T20:13:05.692Z,49.80
2019-04-04T20:15:34.792Z,48.17
2019-04-04T20:18:03.836Z,49.03
2019-04-04T20:20:33.602Z,51.57
2019-04-04T20:23:02.703Z,48.27
2019-04-04T20:25:31.724Z,48.03
2019-04-04T20:28:02.040Z,46.10
2019-04-04T20:30:39.870Z,43.77
2019-04-04T20:33:09.078Z,49.07
2019-04-04T20:35:38.077Z,46.07
2019-04-04T20:38:07.215Z,48.03
2019-04-04T20:40:36.172Z,50.60
2019-04-04T20:43:05.235Z,46.70
2019-04-04T20:45:34.323Z,47.73
2019-04-04T20:48:03.327Z,50.47
2019-04-04T20:50:32.424Z,52.17
2019-04-04T20:53:01.335Z,48.17
2019-04-04T20:55:30.361Z,49.67
2019-04-04T20:57:59.455Z,50.47
2019-04-04T21:00:34.364Z,51.43
2019-04-04T21:03:03.234Z,51.20
2019-04-04T21:05:32.152Z,53.30
2019-04-04T21:08:01.133Z,54.03
2019-04-04T21:10:30.043Z,56.07
2019-04-04T21:12:58.983Z,56.77
2019-04-04T21:15:27.855Z,53.20
2019-04-04T21:17:56.722Z,53.27
2019-04-04T21:20:25.576Z,57.90
2019-04-04T21:22:54.654Z,57.47
2019-04-04T21:25:23.645Z,53.87
2019-04-04T21:27:52.586Z,53.07
2019-04-04T21:30:21.591Z,58.57
2019-04-04T21:32:50.529Z,54.63
2019-04-04T21:35:19.368Z,54.83
2019-04-04T21:37:48.276Z,55.07
2019-04-04T21:40:17.127Z,57.70
2019-04-04T21:42:46.196Z,55.90
2019-04-04T21:45:15.601Z,56.37
2019-04-04T21:47:44.583Z,58.17
2019-04-04T21:50:13.600Z,56.73
2019-04-04T21:52:42.518Z,53.63
2019-04-04T21:55:11.532Z,51.20
2019-04-04T21:57:40.551Z,53.57
2019-04-04T22:00:10.223Z,55.63
2019-04-04T22:02:39.242Z,58.47
2019-04-04T22:05:08.671Z,55.83
2019-04-04T22:07:37.605Z,58.73
2019-04-04T22:10:07.069Z,60.63
2019-04-04T22:12:36.120Z,59.47
2019-04-04T22:15:06.032Z,59.07
2019-04-04T22:17:34.956Z,54.33
2019-04-04T22:20:04.421Z,55.67
2019-04-04T22:22:33.335Z,55.83
2019-04-04T22:25:02.244Z,57.50
2019-04-04T22:27:31.072Z,57.03
2019-04-04T22:29:59.999Z,56.43
2019-04-04T22:32:28.880Z,56.63
2019-04-04T22:34:57.740Z,56.33
2019-04-04T22:37:26.640Z,54.53
2019-04-04T22:39:55.537Z,60.17
2019-04-04T22:42:24.513Z,51.57
2019-04-04T22:44:53.391Z,54.17
2019-04-04T22:47:22.299Z,53.07
2019-04-04T22:49:51.203Z,55.60
2019-04-04T22:52:20.202Z,56.63
2019-04-04T22:54:49.120Z,57.07
2019-04-04T22:57:17.988Z,57.40
2019-04-04T22:59:47.015Z,56.73
2019-04-04T23:02:15.879Z,54.80
2019-04-04T23:04:44.819Z,54.93
2019-04-04T23:07:13.644Z,55.00
2019-04-04T23:09:42.519Z,53.47
2019-04-04T23:12:11.408Z,59.43
2019-04-04T23:14:47.946Z,54.53
2019-04-04T23:17:10.879Z,56.03
2019-04-04T23:19:39.764Z,59.20
2019-04-04T23:22:08.716Z,60.30
2019-04-04T23:24:37.697Z,56.03
2019-04-04T23:27:06.657Z,54.67
2019-04-04T23:29:35.491Z,55.83
2019-04-04T23:32:04.425Z,56.63
2019-04-04T23:34:33.385Z,52.67
2019-04-04T23:37:02.259Z,53.00
2019-04-04T23:39:31.286Z,53.50
2019-04-04T23:42:00.211Z,52.67
2019-04-04T23:44:29.059Z,55.27
2019-04-04T23:46:58.020Z,60.23
2019-04-04T23:49:26.860Z,54.10
2019-04-04T23:51:55.970Z,53.90
2019-04-04T23:54:24.897Z,50.50
2019-04-04T23:56:53.917Z,55.73
2019-04-04T23:59:22.900Z,52.27
